Time;durP1;ratioP1;P1;durP2;ratioP2;P2;SDS_P1;SDS_P2;PMS_P1;PMS_P2;Temp;Humidity;BMP_temperature;BMP_pressure;BME280_temperature;BME280_humidity;BME280_pressure;Samples;Min_cycle;Max_cycle;Signal;HPM_P1;HPM_P2
2022/10/25 00:01:44;;;;;;;3.42;1.15;;;13.90;99.90;;;;;;10048652;28;20500;-64
2022/10/25 00:06:35;;;;;;;2.05;1.10;;;13.80;99.90;;;;;;10044636;28;20051;-65
2022/10/25 00:11:28;;;;;;;2.80;1.88;;;13.80;99.90;;;;;;10045374;28;20038;-64
2022/10/25 00:16:23;;;;;;;1.27;1.17;;;13.80;99.90;;;;;;10044471;28;20018;-65
2022/10/25 00:21:16;;;;;;;2.78;1.05;;;13.80;99.90;;;;;;10038811;28;20046;-65
2022/10/25 00:26:08;;;;;;;1.65;0.90;;;13.80;99.90;;;;;;10060140;28;20177;-65
2022/10/25 00:31:04;;;;;;;2.35;1.10;;;13.80;99.90;;;;;;10060478;28;20033;-64
2022/10/25 00:35:55;;;;;;;3.00;1.70;;;13.90;99.90;;;;;;10059680;28;20483;-64
2022/10/25 00:40:46;;;;;;;1.55;1.13;;;13.90;99.90;;;;;;10062592;28;20048;-65
2022/10/25 00:45:36;;;;;;;2.33;0.93;;;13.90;99.90;;;;;;10060932;28;20037;-65
2022/10/25 00:50:38;;;;;;;3.08;1.27;;;13.80;99.90;;;;;;10061180;28;20407;-65
2022/10/25 00:55:29;;;;;;;3.17;1.30;;;13.80;99.90;;;;;;10062576;28;20663;-66
2022/10/25 01:00:21;;;;;;;2.78;1.15;;;13.80;99.90;;;;;;10060853;28;20388;-65
2022/10/25 01:05:12;;;;;;;2.30;0.90;;;13.80;99.90;;;;;;10059786;28;20057;-65
2022/10/25 01:10:02;;;;;;;6.22;1.67;;;13.80;99.90;;;;;;10058788;28;20033;-65
2022/10/25 01:14:54;;;;;;;2.65;1.00;;;13.80;99.90;;;;;;10060146;28;20034;-64
2022/10/25 01:20:17;;;;;;;2.15;1.30;;;13.80;99.90;;;;;;10058597;28;20120;-65
2022/10/25 01:25:23;;;;;;;2.22;1.42;;;13.70;99.90;;;;;;10059358;28;20065;-65
2022/10/25 01:30:19;;;;;;;2.42;1.25;;;13.80;99.90;;;;;;10059606;28;20033;-65
2022/10/25 01:35:57;;;;;;;2.47;1.40;;;13.70;99.90;;;;;;10057763;28;20487;-64
2022/10/25 01:41:32;;;;;;;2.15;1.70;;;13.80;99.90;;;;;;10055846;28;20045;-66
2022/10/25 01:46:49;;;;;;;2.33;1.30;;;13.70;99.90;;;;;;10045996;28;20073;-66
2022/10/25 01:51:40;;;;;;;3.15;1.95;;;13.60;99.90;;;;;;10056576;28;20061;-65
2022/10/25 01:56:40;;;;;;;5.35;1.65;;;13.60;99.90;;;;;;10055494;28;20053;-65
2022/10/25 02:01:57;;;;;;;4.15;1.35;;;13.60;99.90;;;;;;10055194;28;20049;-66
2022/10/25 02:06:58;;;;;;;3.35;1.77;;;13.60;99.90;;;;;;10056575;28;20042;-65
2022/10/25 02:11:51;;;;;;;4.70;2.30;;;13.60;99.90;;;;;;10057988;28;20570;-65
2022/10/25 02:16:49;;;;;;;3.30;1.60;;;13.60;99.90;;;;;;10054520;28;20048;-65
2022/10/25 02:21:42;;;;;;;1.95;1.40;;;13.50;99.90;;;;;;10054832;28;20068;-65
2022/10/25 02:26:35;;;;;;;2.80;1.70;;;13.60;99.90;;;;;;10054681;28;20123;-64
2022/10/25 02:31:27;;;;;;;4.18;2.20;;;13.50;99.90;;;;;;10053439;28;20111;-65
2022/10/25 02:36:22;;;;;;;6.30;2.28;;;13.50;99.90;;;;;;10054618;28;20029;-65
2022/10/25 02:41:13;;;;;;;4.28;1.67;;;13.50;99.90;;;;;;10052619;28;20041;-65
2022/10/25 02:46:09;;;;;;;4.03;1.67;;;13.60;99.90;;;;;;10056159;28;20423;-65
2022/10/25 02:51:00;;;;;;;2.33;1.27;;;13.50;99.90;;;;;;10052676;28;20124;-64
2022/10/25 02:56:06;;;;;;;4.60;1.77;;;13.50;99.90;;;;;;10053376;28;20436;-65
2022/10/25 03:00:57;;;;;;;1.85;1.10;;;13.40;99.90;;;;;;10052244;28;20273;-65
2022/10/25 03:05:48;;;;;;;2.45;1.10;;;13.40;99.90;;;;;;10050324;28;20072;-66
2022/10/25 03:10:38;;;;;;;3.15;2.05;;;13.40;99.90;;;;;;10051056;28;20071;-65
2022/10/25 03:15:30;;;;;;;3.90;1.73;;;13.40;99.90;;;;;;10052927;28;20049;-65
2022/10/25 03:20:21;;;;;;;4.88;1.65;;;13.40;99.90;;;;;;10051939;28;20042;-65
2022/10/25 03:25:11;;;;;;;3.20;1.40;;;13.40;99.90;;;;;;10052504;28;20033;-66
2022/10/25 03:30:02;;;;;;;1.85;1.27;;;13.40;99.90;;;;;;10053157;28;20045;-65
2022/10/25 03:34:53;;;;;;;2.63;1.60;;;13.30;99.90;;;;;;10052625;28;20041;-66
2022/10/25 03:39:44;;;;;;;3.30;1.55;;;13.30;99.90;;;;;;10051716;28;20037;-65
2022/10/25 03:44:34;;;;;;;3.88;1.90;;;13.30;99.90;;;;;;10052202;28;20037;-66
2022/10/25 03:49:25;;;;;;;3.38;1.70;;;13.40;99.90;;;;;;10049137;28;20029;-65
2022/10/25 03:54:16;;;;;;;4.90;1.70;;;13.40;99.90;;;;;;10049082;28;20036;-66
2022/10/25 03:59:06;;;;;;;2.92;1.60;;;13.40;99.90;;;;;;10048488;28;20166;-65
2022/10/25 04:03:57;;;;;;;4.65;1.50;;;13.40;99.90;;;;;;10051026;28;20034;-65
2022/10/25 04:08:48;;;;;;;5.35;1.67;;;13.30;99.90;;;;;;10050454;28;20179;-64
2022/10/25 04:13:38;;;;;;;2.08;1.65;;;13.30;99.90;;;;;;10049618;28;20109;-65
2022/10/25 04:18:29;;;;;;;3.28;2.03;;;13.30;99.90;;;;;;10053082;28;20033;-65
2022/10/25 04:23:20;;;;;;;1.88;1.33;;;13.20;99.90;;;;;;10054281;28;20051;-64
2022/10/25 04:28:10;;;;;;;3.05;1.73;;;13.20;99.90;;;;;;10054211;28;20528;-65
2022/10/25 04:33:01;;;;;;;5.43;1.80;;;13.30;99.90;;;;;;10053903;28;20506;-64
2022/10/25 04:37:56;;;;;;;4.25;1.50;;;13.20;99.90;;;;;;10054579;28;20044;-64
2022/10/25 04:42:46;;;;;;;2.35;1.70;;;13.20;99.90;;;;;;10053714;28;20583;-65
2022/10/25 04:47:37;;;;;;;3.58;1.73;;;13.20;99.90;;;;;;10054124;28;20099;-64
2022/10/25 04:52:28;;;;;;;2.67;1.52;;;13.20;99.90;;;;;;10054200;28;20042;-66
2022/10/25 04:57:19;;;;;;;2.55;1.27;;;13.20;99.90;;;;;;10053408;28;20491;-66
2022/10/25 05:02:11;;;;;;;4.25;1.75;;;13.20;99.90;;;;;;10053547;28;20159;-66
2022/10/25 05:07:01;;;;;;;2.58;1.73;;;13.20;99.90;;;;;;10051709;28;20507;-66
2022/10/25 05:11:52;;;;;;;1.90;1.38;;;13.20;99.90;;;;;;10062527;28;20033;-65
2022/10/25 05:16:43;;;;;;;3.95;2.00;;;13.20;99.90;;;;;;10057166;28;20021;-66
2022/10/25 05:21:34;;;;;;;4.20;1.70;;;13.10;99.90;;;;;;10057180;28;20037;-66
2022/10/25 05:26:25;;;;;;;4.28;1.55;;;13.10;99.90;;;;;;10056622;28;20022;-65
2022/10/25 05:31:19;;;;;;;4.35;1.67;;;13.10;99.90;;;;;;10057513;28;20446;-66
2022/10/25 05:36:12;;;;;;;2.25;1.23;;;13.10;99.90;;;;;;10056322;28;20018;-65
2022/10/25 05:41:03;;;;;;;3.90;1.80;;;13.00;99.90;;;;;;10056201;28;20041;-66
2022/10/25 05:46:05;;;;;;;4.15;1.92;;;13.10;99.90;;;;;;10056294;28;20014;-65
2022/10/25 05:51:26;;;;;;;4.45;2.90;;;13.00;99.90;;;;;;10054920;28;20033;-65
2022/10/25 05:56:19;;;;;;;2.53;1.70;;;13.10;99.90;;;;;;10064105;28;20419;-65
2022/10/25 06:01:13;;;;;;;5.93;2.20;;;13.10;99.90;;;;;;10048236;28;20050;-65
2022/10/25 06:06:06;;;;;;;3.72;1.92;;;13.20;99.90;;;;;;10053717;28;20107;-66
2022/10/25 06:11:07;;;;;;;3.80;2.13;;;13.30;99.90;;;;;;10055238;28;20410;-66
2022/10/25 06:16:01;;;;;;;6.00;2.17;;;13.30;99.90;;;;;;10056812;28;20105;-66
2022/10/25 06:20:52;;;;;;;6.35;2.15;;;13.30;99.90;;;;;;10056297;28;20037;-66
2022/10/25 06:25:42;;;;;;;3.20;1.70;;;13.30;99.90;;;;;;10056743;28;20155;-66
2022/10/25 06:30:33;;;;;;;3.05;1.75;;;13.20;99.90;;;;;;10056770;28;20099;-66
2022/10/25 06:35:23;;;;;;;5.47;1.70;;;13.20;99.90;;;;;;10052390;28;20044;-65
2022/10/25 06:40:14;;;;;;;2.88;1.67;;;13.30;99.90;;;;;;10050407;28;20496;-63
2022/10/25 06:45:05;;;;;;;3.58;1.85;;;13.30;99.90;;;;;;10048358;28;20033;-65
2022/10/25 06:49:56;;;;;;;1.73;1.33;;;13.40;99.90;;;;;;10045207;28;20070;-63
2022/10/25 06:54:47;;;;;;;2.88;1.67;;;13.30;99.90;;;;;;10047860;28;20518;-64
2022/10/25 06:59:37;;;;;;;3.63;2.08;;;13.30;99.90;;;;;;10044821;28;20048;-64
2022/10/25 07:04:31;;;;;;;4.90;1.73;;;13.40;99.90;;;;;;10037088;28;20458;-62
2022/10/25 07:09:21;;;;;;;6.63;2.47;;;13.40;99.90;;;;;;10046094;28;20095;-63
2022/10/25 07:14:12;;;;;;;8.35;2.03;;;13.40;99.90;;;;;;10047736;28;20456;-63
2022/10/25 07:19:03;;;;;;;3.03;1.52;;;13.60;99.90;;;;;;10046002;28;20047;-63
2022/10/25 07:23:54;;;;;;;2.65;1.58;;;13.60;99.90;;;;;;10045373;28;20186;-63
2022/10/25 07:28:46;;;;;;;4.88;2.25;;;13.60;99.90;;;;;;10046539;28;20129;-62
2022/10/25 07:33:37;;;;;;;3.72;1.52;;;13.70;99.90;;;;;;10047524;28;20395;-62
2022/10/25 07:38:27;;;;;;;2.95;1.92;;;13.80;99.90;;;;;;10050368;28;20105;-62
2022/10/25 07:43:18;;;;;;;3.53;2.15;;;13.80;99.90;;;;;;10047803;28;20038;-63
2022/10/25 07:48:08;;;;;;;7.32;3.40;;;13.90;99.90;;;;;;10048853;28;20445;-62
2022/10/25 07:52:59;;;;;;;7.53;1.77;;;14.00;99.90;;;;;;10049936;28;20034;-63
2022/10/25 07:57:50;;;;;;;2.92;1.92;;;14.00;99.90;;;;;;10050811;28;20039;-63
2022/10/25 08:02:41;;;;;;;4.30;1.63;;;14.10;99.90;;;;;;10050573;28;20038;-63
2022/10/25 08:07:32;;;;;;;3.85;1.98;;;14.30;99.90;;;;;;10049715;28;20049;-66
2022/10/25 08:12:22;;;;;;;4.45;2.65;;;14.40;99.90;;;;;;10053274;28;20041;-64
2022/10/25 08:17:14;;;;;;;5.80;1.98;;;14.50;99.90;;;;;;10046016;28;20026;-64
2022/10/25 08:22:05;;;;;;;3.15;1.40;;;14.70;99.90;;;;;;10046358;28;20148;-64
2022/10/25 08:26:55;;;;;;;3.67;2.47;;;14.80;99.90;;;;;;10045982;28;20135;-66
2022/10/25 08:31:46;;;;;;;2.97;1.83;;;14.80;99.90;;;;;;10046970;28;20044;-64
2022/10/25 08:36:37;;;;;;;4.25;2.03;;;14.80;99.90;;;;;;10044983;28;20087;-68
2022/10/25 08:41:49;;;;;;;3.30;2.47;;;15.00;99.90;;;;;;10045480;28;20435;-65
2022/10/25 08:46:48;;;;;;;3.28;1.60;;;15.10;99.90;;;;;;10052230;28;20475;-64
2022/10/25 08:51:42;;;;;;;4.88;2.42;;;15.30;99.90;;;;;;10053904;28;20021;-64
2022/10/25 08:56:34;;;;;;;3.92;2.00;;;15.50;99.90;;;;;;10051629;28;20041;-63
2022/10/25 09:01:42;;;;;;;4.53;1.90;;;15.70;99.90;;;;;;10051230;28;20056;-67
2022/10/25 09:07:08;;;;;;;6.53;4.28;;;15.90;99.90;;;;;;10070370;28;20050;-66
2022/10/25 09:12:19;;;;;;;5.18;1.80;;;16.10;99.90;;;;;;10050450;28;20041;-64
2022/10/25 09:17:18;;;;;;;5.28;1.70;;;16.30;99.90;;;;;;10051698;28;20018;-63
2022/10/25 09:22:36;;;;;;;3.05;1.45;;;16.30;99.90;;;;;;10054938;28;20141;-65
2022/10/25 09:27:37;;;;;;;3.13;1.58;;;16.20;99.90;;;;;;10054349;28;20048;-64
2022/10/25 09:32:43;;;;;;;6.38;1.70;;;16.30;99.90;;;;;;10055961;28;20499;-62
2022/10/25 09:38:00;;;;;;;4.32;2.30;;;16.40;99.90;;;;;;10055744;28;20528;-66
2022/10/25 09:42:55;;;;;;;3.92;2.15;;;16.40;99.90;;;;;;10053899;28;20068;-64
2022/10/25 09:47:57;;;;;;;2.72;1.33;;;16.30;99.90;;;;;;10050814;28;20017;-63
2022/10/25 09:53:15;;;;;;;4.50;1.90;;;16.30;99.90;;;;;;10048529;28;20112;-64
2022/10/25 09:58:17;;;;;;;5.53;1.92;;;16.40;99.90;;;;;;10048366;28;20519;-63
2022/10/25 10:03:11;;;;;;;3.90;1.50;;;16.40;99.90;;;;;;10052624;28;20623;-63
2022/10/25 10:08:01;;;;;;;3.63;1.90;;;16.40;99.90;;;;;;10046972;28;20439;-62
2022/10/25 10:13:10;;;;;;;4.55;2.03;;;16.50;99.90;;;;;;10048281;28;20025;-63
2022/10/25 10:18:24;;;;;;;4.65;2.20;;;16.70;99.90;;;;;;10049370;28;20071;-64
2022/10/25 10:23:14;;;;;;;3.20;1.60;;;16.90;99.90;;;;;;10049611;28;20041;-65
2022/10/25 10:28:13;;;;;;;2.65;1.70;;;16.90;99.90;;;;;;10048959;28;20116;-63
2022/10/25 10:33:13;;;;;;;4.43;2.05;;;16.90;99.90;;;;;;10050260;28;20087;-69
2022/10/25 10:38:27;;;;;;;2.63;1.60;;;17.00;99.90;;;;;;10048421;28;20040;-64
2022/10/25 10:43:29;;;;;;;4.53;2.05;;;17.20;99.90;;;;;;10047586;28;20072;-65
2022/10/25 10:48:21;;;;;;;4.28;1.85;;;17.30;99.90;;;;;;10045703;28;20113;-64
2022/10/25 10:53:21;;;;;;;5.30;1.90;;;17.40;99.90;;;;;;10047449;28;20087;-62
2022/10/25 10:58:29;;;;;;;2.47;1.65;;;17.40;99.90;;;;;;10048202;28;20025;-64
2022/10/25 11:03:41;;;;;;;3.65;1.60;;;17.50;99.90;;;;;;10053508;28;20055;-65
2022/10/25 11:08:32;;;;;;;3.50;2.33;;;17.60;99.90;;;;;;10026773;28;20175;-64
2022/10/25 11:13:24;;;;;;;7.22;1.88;;;17.60;99.90;;;;;;10038445;28;20159;-63
2022/10/25 11:18:19;;;;;;;4.13;1.85;;;17.70;99.90;;;;;;10040054;28;20163;-64
2022/10/25 11:23:47;;;;;;;3.53;1.35;;;17.80;99.90;;;;;;10036550;28;20034;-65
2022/10/25 11:28:59;;;;;;;3.50;1.90;;;17.90;99.90;;;;;;10045178;28;20444;-65
2022/10/25 11:33:59;;;;;;;3.75;1.42;;;18.10;99.90;;;;;;10044535;28;20077;-64
2022/10/25 11:39:15;;;;;;;5.07;1.75;;;18.20;99.90;;;;;;10045916;28;20033;-63
2022/10/25 11:44:29;;;;;;;3.78;2.15;;;18.50;99.90;;;;;;10046654;28;20033;-64
2022/10/25 11:49:27;;;;;;;4.90;1.50;;;18.70;99.90;;;;;;10046139;28;20055;-64
2022/10/25 11:54:53;;;;;;;4.70;2.00;;;18.90;99.90;;;;;;10045835;28;20116;-65
2022/10/25 12:00:11;;;;;;;3.30;1.10;;;18.90;99.90;;;;;;10044519;28;20033;-64
2022/10/25 12:05:40;;;;;;;1.40;1.08;;;19.10;99.90;;;;;;10043675;28;20558;-66
2022/10/25 12:11:05;;;;;;;2.15;1.48;;;19.30;99.90;;;;;;10040210;28;20105;-64
2022/10/25 12:15:58;;;;;;;6.65;1.83;;;19.40;99.90;;;;;;10043360;28;20030;-66
2022/10/25 12:20:49;;;;;;;4.88;1.73;;;19.60;99.90;;;;;;10044243;28;20034;-65
2022/10/25 12:25:46;;;;;;;4.20;1.17;;;19.70;99.90;;;;;;10042207;28;20017;-65
2022/10/25 12:30:40;;;;;;;4.47;1.45;;;19.90;99.90;;;;;;10043216;28;20033;-66
2022/10/25 12:35:38;;;;;;;2.30;1.25;;;20.30;99.90;;;;;;10045781;28;20529;-63
2022/10/25 12:40:36;;;;;;;3.90;0.85;;;20.50;99.90;;;;;;10047839;28;20063;-67
2022/10/25 12:45:51;;;;;;;4.05;1.17;;;20.80;99.90;;;;;;10045135;28;20029;-66
2022/10/25 12:50:59;;;;;;;5.03;1.15;;;21.30;99.90;;;;;;10043724;28;20034;-65
2022/10/25 12:56:01;;;;;;;2.15;1.00;;;21.60;99.90;;;;;;10043451;28;20025;-64
2022/10/25 13:01:00;;;;;;;5.35;1.23;;;21.90;99.90;;;;;;10044566;28;20029;-66
2022/10/25 13:06:13;;;;;;;4.35;1.15;;;22.10;99.90;;;;;;10043134;28;20045;-65
2022/10/25 13:11:06;;;;;;;4.32;1.27;;;22.60;99.90;;;;;;10043192;28;20017;-66
2022/10/25 13:15:59;;;;;;;2.20;1.00;;;22.70;99.90;;;;;;10042097;28;20079;-65
2022/10/25 13:20:51;;;;;;;4.30;1.50;;;22.70;99.90;;;;;;10046098;28;20091;-63
2022/10/25 13:25:48;;;;;;;2.08;1.10;;;23.20;99.90;;;;;;10046369;28;20024;-64
2022/10/25 13:30:39;;;;;;;2.97;1.63;;;23.20;99.90;;;;;;10048091;28;20017;-62
2022/10/25 13:35:38;;;;;;;2.70;0.93;;;23.00;99.90;;;;;;10051612;28;20028;-63
2022/10/25 13:40:30;;;;;;;2.45;0.98;;;22.90;99.90;;;;;;10048663;28;20037;-61
2022/10/25 13:45:41;;;;;;;4.63;1.58;;;23.00;99.90;;;;;;10048544;28;20068;-62
2022/10/25 13:51:00;;;;;;;3.70;0.98;;;23.00;99.90;;;;;;10051469;28;20104;-62
2022/10/25 13:56:05;;;;;;;3.67;1.67;;;22.90;99.90;;;;;;10045175;28;20048;-64
2022/10/25 14:00:57;;;;;;;5.32;2.38;;;22.60;99.90;;;;;;10050337;28;20041;-65
2022/10/25 14:10:48;;;;;;;2.78;1.00;;;22.50;99.90;;;;;;10049652;28;20064;-66
2022/10/25 14:15:55;;;;;;;5.97;2.65;;;22.60;99.90;;;;;;10044621;28;20563;-63
2022/10/25 14:20:53;;;;;;;4.20;1.40;;;22.50;99.90;;;;;;10053964;28;20041;-62
2022/10/25 14:25:58;;;;;;;2.50;1.45;;;22.30;99.90;;;;;;10049947;28;20021;-65
2022/10/25 14:30:54;;;;;;;5.63;1.30;;;22.10;99.90;;;;;;10053350;28;20025;-66
2022/10/25 14:35:50;;;;;;;2.50;1.20;;;22.00;99.90;;;;;;10052101;28;20403;-70
2022/10/25 14:40:48;;;;;;;4.65;1.65;;;21.80;99.90;;;;;;10050525;28;20459;-64
2022/10/25 14:45:39;;;;;;;2.08;0.73;;;21.50;99.90;;;;;;10051223;28;20022;-61
2022/10/25 14:50:30;;;;;;;2.05;0.75;;;21.40;99.90;;;;;;10053548;28;20107;-66
2022/10/25 14:55:29;;;;;;;3.85;1.02;;;21.30;99.90;;;;;;10049081;28;20021;-63
2022/10/25 15:00:22;;;;;;;3.70;1.10;;;21.20;99.90;;;;;;10052978;28;21703;-61
2022/10/25 15:05:23;;;;;;;2.38;1.20;;;21.20;99.90;;;;;;10046082;28;20236;-60
2022/10/25 15:10:35;;;;;;;5.22;1.60;;;21.20;99.90;;;;;;10051343;28;20018;-63
2022/10/25 15:15:36;;;;;;;3.63;1.48;;;21.10;99.90;;;;;;10050627;28;20021;-67
2022/10/25 15:20:33;;;;;;;3.88;1.45;;;21.00;99.90;;;;;;10052204;28;20112;-64
2022/10/25 15:25:23;;;;;;;1.65;1.15;;;20.90;99.90;;;;;;10050447;28;20423;-62
2022/10/25 15:30:38;;;;;;;6.97;1.92;;;20.70;99.90;;;;;;10052869;28;20026;-61
2022/10/25 15:35:30;;;;;;;4.77;2.50;;;20.60;99.90;;;;;;10050601;28;20393;-66
2022/10/25 15:40:21;;;;;;;8.48;3.47;;;20.40;99.90;;;;;;10050892;28;20414;-63
2022/10/25 15:45:12;;;;;;;5.47;2.13;;;20.20;99.90;;;;;;10048613;28;20045;-65
2022/10/25 15:50:11;;;;;;;11.75;2.47;;;20.10;99.90;;;;;;10047787;28;20101;-66
2022/10/25 15:55:08;;;;;;;8.25;5.22;;;20.00;99.90;;;;;;10038599;28;20049;-63
2022/10/25 15:59:58;;;;;;;10.70;4.07;;;19.80;99.90;;;;;;10053784;28;20029;-68
2022/10/25 16:04:49;;;;;;;14.65;6.32;;;19.60;99.90;;;;;;10048544;28;20110;-66
2022/10/25 16:09:40;;;;;;;8.93;5.22;;;19.40;99.90;;;;;;10054333;28;20060;-65
2022/10/25 16:14:30;;;;;;;7.07;3.58;;;19.30;99.90;;;;;;10049353;28;20379;-64
2022/10/25 16:19:21;;;;;;;7.28;4.38;;;19.10;99.90;;;;;;10047482;28;20029;-62
2022/10/25 16:24:12;;;;;;;5.72;3.03;;;18.90;99.90;;;;;;10049126;28;20037;-64
2022/10/25 16:29:03;;;;;;;5.75;2.63;;;18.80;99.90;;;;;;10048566;28;20033;-62
2022/10/25 16:33:54;;;;;;;8.95;4.18;;;18.60;99.90;;;;;;10047984;28;20401;-65
2022/10/25 16:38:45;;;;;;;12.15;6.57;;;18.60;99.90;;;;;;10042970;28;20059;-66
2022/10/25 16:43:36;;;;;;;7.93;5.07;;;18.50;99.90;;;;;;10047709;28;20030;-66
2022/10/25 16:48:28;;;;;;;14.98;5.15;;;18.50;99.90;;;;;;10048278;28;20395;-66
2022/10/25 16:53:18;;;;;;;9.85;5.03;;;18.40;99.90;;;;;;10046938;28;20032;-63
2022/10/25 16:58:09;;;;;;;7.28;5.07;;;18.30;99.90;;;;;;10046467;28;20036;-61
2022/10/25 17:03:01;;;;;;;14.93;6.03;;;18.20;99.90;;;;;;10048290;28;20584;-62
2022/10/25 17:07:52;;;;;;;11.73;4.50;;;18.20;99.90;;;;;;10054417;28;20042;-61
2022/10/25 17:12:48;;;;;;;6.45;3.55;;;18.20;99.90;;;;;;10054035;28;20026;-64
2022/10/25 17:17:39;;;;;;;7.03;4.07;;;18.20;99.90;;;;;;10052202;28;20028;-59
2022/10/25 17:22:31;;;;;;;5.97;2.80;;;18.00;99.90;;;;;;10051720;28;20174;-63
2022/10/25 17:27:22;;;;;;;5.53;3.03;;;18.00;99.90;;;;;;10045798;28;20484;-63
2022/10/25 17:32:12;;;;;;;7.93;3.83;;;17.90;99.90;;;;;;10051556;28;20048;-64
2022/10/25 17:37:03;;;;;;;6.10;3.55;;;17.90;99.90;;;;;;10050228;28;20730;-63
2022/10/25 17:41:54;;;;;;;8.45;3.45;;;17.80;99.90;;;;;;10054772;28;20045;-63
2022/10/25 17:46:44;;;;;;;9.43;3.30;;;17.80;99.90;;;;;;10053377;28;20504;-65
2022/10/25 17:51:35;;;;;;;10.88;3.63;;;17.80;99.90;;;;;;10051533;28;20300;-65
2022/10/25 17:56:27;;;;;;;9.55;4.40;;;17.80;99.90;;;;;;10052457;28;20017;-65
2022/10/25 18:01:20;;;;;;;4.25;2.33;;;17.70;99.90;;;;;;10053926;28;20460;-64
2022/10/25 18:06:13;;;;;;;7.85;4.00;;;17.60;99.90;;;;;;10050530;28;20050;-64
2022/10/25 18:11:21;;;;;;;5.20;2.65;;;17.70;99.90;;;;;;10053644;28;20454;-64
2022/10/25 18:16:12;;;;;;;7.50;3.00;;;17.60;99.90;;;;;;10054042;28;20025;-65
2022/10/25 18:21:13;;;;;;;10.90;3.35;;;17.60;99.90;;;;;;10054062;28;20029;-65
2022/10/25 18:26:05;;;;;;;5.32;3.30;;;17.60;99.90;;;;;;10049747;28;20112;-62
2022/10/25 18:31:08;;;;;;;9.52;3.45;;;17.50;99.90;;;;;;10052635;28;20010;-64
2022/10/25 18:36:04;;;;;;;5.55;2.65;;;17.50;99.90;;;;;;10049765;28;20107;-64
2022/10/25 18:40:57;;;;;;;6.20;3.03;;;17.40;99.90;;;;;;10053254;28;20044;-63
2022/10/25 18:45:49;;;;;;;3.15;2.55;;;17.30;99.90;;;;;;10049903;28;20033;-66
2022/10/25 18:50:40;;;;;;;13.48;6.47;;;17.40;99.90;;;;;;10045793;28;20519;-63
2022/10/25 18:55:31;;;;;;;9.88;4.07;;;17.40;99.90;;;;;;10041007;28;20047;-66
2022/10/25 19:00:25;;;;;;;7.28;3.10;;;17.40;99.90;;;;;;10050552;28;20041;-66
2022/10/25 19:05:15;;;;;;;5.88;3.55;;;17.40;99.90;;;;;;10046201;28;20064;-65
2022/10/25 19:10:07;;;;;;;4.85;3.03;;;17.40;99.90;;;;;;10050670;28;20143;-66
2022/10/25 19:14:58;;;;;;;5.18;2.40;;;17.30;99.90;;;;;;10047204;28;20030;-65
2022/10/25 19:19:49;;;;;;;7.20;2.85;;;17.30;99.90;;;;;;10049326;28;20029;-68
2022/10/25 19:24:39;;;;;;;6.45;3.28;;;17.20;99.90;;;;;;10051766;28;20120;-66
2022/10/25 19:29:33;;;;;;;3.38;2.20;;;17.20;99.90;;;;;;10051211;28;20017;-67
2022/10/25 19:34:27;;;;;;;5.30;3.42;;;17.10;99.90;;;;;;10051009;28;20104;-65
2022/10/25 19:39:18;;;;;;;5.68;3.33;;;17.20;99.90;;;;;;10051357;28;20053;-66
2022/10/25 19:44:08;;;;;;;6.88;2.40;;;17.20;99.90;;;;;;10051292;28;20188;-66
2022/10/25 19:48:59;;;;;;;4.53;2.92;;;17.10;99.90;;;;;;10055423;28;20114;-66
2022/10/25 19:53:50;;;;;;;3.70;2.30;;;17.10;99.90;;;;;;10051071;28;20032;-66
2022/10/25 19:58:41;;;;;;;4.95;2.50;;;17.20;99.90;;;;;;10050054;28;20077;-63
2022/10/25 20:03:33;;;;;;;4.28;2.15;;;17.10;99.90;;;;;;10046224;28;20143;-63
2022/10/25 20:08:23;;;;;;;3.97;2.25;;;17.10;99.90;;;;;;10045397;28;20039;-63
2022/10/25 20:13:15;;;;;;;2.85;1.92;;;17.20;99.90;;;;;;10043410;28;20124;-64
2022/10/25 20:18:16;;;;;;;6.00;2.60;;;17.20;99.90;;;;;;10043932;28;20105;-63
2022/10/25 20:23:06;;;;;;;4.07;1.90;;;17.20;99.90;;;;;;10043523;28;20104;-63
2022/10/25 20:28:01;;;;;;;3.55;2.15;;;17.10;99.90;;;;;;10044882;28;20530;-64
2022/10/25 20:33:01;;;;;;;3.05;2.40;;;17.20;99.90;;;;;;10046237;28;20032;-62
2022/10/25 20:37:51;;;;;;;4.90;3.05;;;17.10;99.90;;;;;;10045679;28;20104;-64
2022/10/25 20:42:42;;;;;;;4.45;3.15;;;17.00;99.90;;;;;;10053465;28;20033;-63
2022/10/25 20:47:35;;;;;;;3.20;1.92;;;17.10;99.90;;;;;;10053960;28;20037;-64
2022/10/25 20:52:26;;;;;;;8.65;2.58;;;17.10;99.90;;;;;;10053752;28;20045;-63
2022/10/25 20:57:16;;;;;;;4.28;2.10;;;17.10;99.90;;;;;;10051705;28;20026;-63
2022/10/25 21:02:08;;;;;;;5.55;2.20;;;17.10;99.90;;;;;;10058707;28;20037;-63
2022/10/25 21:07:00;;;;;;;7.00;2.67;;;17.00;99.90;;;;;;10059713;28;20577;-62
2022/10/25 21:11:53;;;;;;;3.38;1.95;;;17.00;99.90;;;;;;10058010;28;20722;-64
2022/10/25 21:16:43;;;;;;;3.65;2.33;;;16.90;99.90;;;;;;10057845;28;20025;-65
2022/10/25 21:21:34;;;;;;;4.60;2.35;;;16.90;99.90;;;;;;10057312;28;20611;-62
2022/10/25 21:26:25;;;;;;;3.00;1.88;;;17.00;99.90;;;;;;10056297;28;20045;-62
2022/10/25 21:31:16;;;;;;;3.40;2.08;;;16.90;99.90;;;;;;10053770;28;20048;-63
2022/10/25 21:36:09;;;;;;;3.95;2.25;;;16.90;99.90;;;;;;10055895;28;20438;-63
2022/10/25 21:41:25;;;;;;;4.10;2.20;;;17.00;99.90;;;;;;10048110;28;20164;-62
2022/10/25 21:46:17;;;;;;;5.07;2.70;;;17.00;99.90;;;;;;10049901;28;20030;-63
2022/10/25 21:51:08;;;;;;;6.55;2.58;;;16.90;99.90;;;;;;10047889;28;20702;-62
2022/10/25 21:56:10;;;;;;;4.80;2.10;;;16.90;99.90;;;;;;10050465;28;20028;-62
2022/10/25 22:01:04;;;;;;;7.22;2.65;;;16.90;99.90;;;;;;10052576;28;20144;-63
2022/10/25 22:05:56;;;;;;;6.95;2.60;;;16.80;99.90;;;;;;10048089;28;20128;-62
2022/10/25 22:10:58;;;;;;;5.25;2.38;;;16.80;99.90;;;;;;10050586;28;20030;-62
2022/10/25 22:16:17;;;;;;;7.28;2.95;;;16.70;99.90;;;;;;10050759;28;20480;-64
2022/10/25 22:21:10;;;;;;;5.25;2.92;;;16.70;99.90;;;;;;10049586;28;20136;-64
2022/10/25 22:26:06;;;;;;;6.53;3.47;;;16.70;99.90;;;;;;10049975;28;20025;-63
2022/10/25 22:31:05;;;;;;;3.85;2.42;;;16.70;99.90;;;;;;10048578;28;20033;-62
2022/10/25 22:36:04;;;;;;;6.20;2.55;;;16.70;99.90;;;;;;10049774;28;20067;-63
2022/10/25 22:41:00;;;;;;;9.95;2.88;;;16.70;99.90;;;;;;10052253;28;20046;-63
2022/10/25 22:45:51;;;;;;;4.45;2.55;;;16.70;99.90;;;;;;10053470;28;20028;-63
2022/10/25 22:50:52;;;;;;;4.93;2.97;;;16.60;99.90;;;;;;10056986;28;20037;-65
2022/10/25 22:55:59;;;;;;;5.78;2.58;;;16.60;99.90;;;;;;10053589;28;20104;-62
2022/10/25 23:00:50;;;;;;;8.63;2.10;;;16.60;99.90;;;;;;10052743;28;20037;-62
2022/10/25 23:05:41;;;;;;;4.40;2.70;;;16.40;99.90;;;;;;10050603;28;20057;-63
2022/10/25 23:10:31;;;;;;;5.45;2.35;;;16.40;99.90;;;;;;10053087;28;20403;-61
2022/10/25 23:15:22;;;;;;;4.53;2.00;;;16.40;99.90;;;;;;10051687;28;20091;-66
2022/10/25 23:20:13;;;;;;;5.43;2.80;;;16.40;99.90;;;;;;10047346;28;20045;-62
2022/10/25 23:25:04;;;;;;;5.25;2.45;;;16.40;99.90;;;;;;10046804;28;20036;-63
2022/10/25 23:29:54;;;;;;;3.53;2.13;;;16.40;99.90;;;;;;10046682;28;20144;-62
2022/10/25 23:34:45;;;;;;;3.95;2.40;;;16.40;99.90;;;;;;10046845;28;20025;-62
2022/10/25 23:39:36;;;;;;;4.97;2.30;;;16.40;99.90;;;;;;10047117;28;20495;-64
2022/10/25 23:44:26;;;;;;;4.43;2.13;;;16.30;99.90;;;;;;10046745;28;20083;-63
2022/10/25 23:49:17;;;;;;;5.65;2.80;;;16.30;99.90;;;;;;10046653;28;20032;-63
2022/10/25 23:54:08;;;;;;;4.03;2.20;;;16.30;99.90;;;;;;10041532;28;20153;-63
2022/10/25 23:58:59;;;;;;;3.75;2.10;;;16.30;99.90;;;;;;10046230;28;20244;-62
